Airfield :
LOGIN :

Register | Disclaimer

   EN    FR    IT 

 










Legend :    VFR   Marginal VFR   IFR   Intensive IFR   Very Intensive IFR
Visi :
Ceiling :
>= 8 km
>= 3000ft
5 to 8 km
1000 to 3000 ft
1500m to 5 km
500 to 1000 ft
800 to 1500m
200 to 500 ft
< 800m
< 200 ft
Symbols :   Thunderstorms  Fog  Heavy snow  Heavy precipitations  Wind > 20 kt
SIGMETs :     Misc.  Thunderstorms  Icing  Turbulence  Mountain Waves  Volcanic Ashes






- Airport Elevation : 424 ft
- IATA code : QGY


LHPR - Györ Per

CURRENT METAR :
  • 282245Z AUTO 25004KT 8000 ////// 06/05 Q1021

EXPIRED METARs :
  • 282215Z AUTO 27003KT 8000 ////// 07/05 Q1021
  • 282145Z AUTO 21002KT 9000 ////// 08/06 Q1021
  • 282115Z AUTO 25002KT 9999 ////// 08/06 Q1021
  • 282045Z AUTO 28004KT 9999 ////// 08/06 Q1021
  • 282015Z AUTO 29005KT 9999 ////// 09/06 Q1021
  • 281945Z AUTO 28006KT 9999 ////// 09/06 Q1020
  • 281915Z AUTO 29005KT 9999 ////// 10/07 Q1020
  • 281845Z AUTO 29006KT 9999 ////// 10/07 Q1020
  • 281815Z AUTO 29008KT 9999 ////// 10/07 Q1020

TAF TAF LHPR
Valid from the 28 at 18:00 until the 29 at 03:00 UTC


281715Z 2818/2903 30010KT CAVOK
BECMG 2818/2821 VRB03KT 5000 BR
TEMPO 2821/2903 2500 BR



MET'MAP, your aeronautical weather chart ! - Copyright ORBIFLY December 2007 - Disclaimer

ORBIFLY MET'MAP TEAM :

Programming & Development : Alexandra Zaïnal
Original concept : Baudouin d'Aumeries
Technical & hardware support : Manuel Goepfert
Assistance : Marc-Olivier Méhu




SOURCES & CREDITS :

   NOAA